Atchison, KS

6:55 AM CDT on October 25, 2014 (GMT -0500)
Shannon Township | Change Station
CLOSE
Current Station
Personal Weather Station
Location: Atchison, KS
Elevation: 942 ft
Nearby Weather Stations
Active Advisory: Dense Fog Advisory

Elev 942 ft 39.56 °N, 95.16 °W | Updated 4 minutes ago

Fog
Fog
51.9 °F
Feels Like 51.9 °F
N
0.0
Wind Variable Wind from NNW
Gusts 0.0 mph

Today
High -- | Low -- °F
--% Chance of Precip.
Yesterday
High -- | Low -- °F
Precip. -- in
7:41 AM 6:27 PM
Waxing Crescent, 3% visible
Pressure 30.04 in
Visibility 0.2 miles
Clouds
Dew Point 51 °F
Humidity 97%
Rainfall 0.00 in
Snow Depth Not available.
UV Not available.
Pollen 3.10 out of 12
Air Quality Not available.
Flu Activity No Activity
SPECI KSTJ 251128Z AUTO 00000KT 1/4SM R35/1200V2000FT FG VV001 09/09 A3004 RMK AO2 T00890089

More Conditions Fewer Conditions

Pressure 30.04 in
Visibility 0.2 miles
Clouds
Dew Point 51 °F
Humidity 97%
Rainfall 0.00 in
Snow Depth Not available.
UV Not available.
Pollen 3.10 out of 12
Air Quality Not available.
Flu Activity No Activity
SPECI KSTJ 251128Z AUTO 00000KT 1/4SM R35/1200V2000FT FG VV001 09/09 A3004 RMK AO2 T00890089

More Conditions Fewer Conditions

10-Day Weather Forecast

Almanac

Astronomy

Oct. 25, 2014 Rise Set
Actual Time 7:41 AM CDT 6:27 PM CDT
Civil Twilight 7:13 AM CDT 6:55 PM CDT
Nautical Twilight 6:42 AM CDT 7:26 PM CDT
Astronomical Twilight 6:10 AM CDT 7:57 PM CDT
Moon 9:20 AM CDT 7:51 PM CDT
Length of Visible Light 11h 41m
Length of Day
10h 46m
Tomorrow will be 2m 22s shorter.
Waxing Crescent, 3% of the Moon is Illuminated
Today
Waxing Crescent
Oct 30
First Quarter
Nov 6
Full
Nov 14
Last Quarter
Nov 22
New

Today's Extremes

State Highs State Lows

Community

WunderPhotos

Upload Photos

1,764,812 photos uploaded!

Nearby

Snow Depth

Station Depth Elevation
No new snow has been reported.

Earthquake Activity

City Distance Mag. Time & Date
No recent earthquake activity has been reported nearby.
Minimum magnitude displayed is 2.5.

Coastal Water Temperatures

Place Temperature
No Stations Reporting

Nearby Weather Stations